Time;durP1;ratioP1;P1;durP2;ratioP2;P2;SDS_P1;SDS_P2;PMS_P1;PMS_P2;Temp;Humidity;BMP_temperature;BMP_pressure;BME280_temperature;BME280_humidity;BME280_pressure;Samples;Min_cycle;Max_cycle;Signal;HPM_P1;HPM_P2
2023/10/20 00:00:14;;;;;;;6.10;5.50;;;13.10;99.90;;;;;;5108836;28;20178;-76
2023/10/20 00:02:43;;;;;;;7.77;4.93;;;13.10;99.90;;;;;;5114040;28;20186;-80
2023/10/20 00:05:09;;;;;;;6.27;5.43;;;13.10;99.90;;;;;;5079065;28;20210;-78
2023/10/20 00:07:36;;;;;;;6.77;5.50;;;13.10;99.90;;;;;;5095514;28;20227;-77
2023/10/20 00:10:03;;;;;;;5.47;4.97;;;13.20;99.90;;;;;;5094538;28;20178;-78
2023/10/20 00:12:29;;;;;;;6.50;5.17;;;13.10;99.90;;;;;;5094324;28;20307;-77
2023/10/20 00:14:55;;;;;;;5.77;5.30;;;13.20;99.90;;;;;;5093882;28;20178;-79
2023/10/20 00:17:22;;;;;;;5.40;4.97;;;13.20;99.90;;;;;;5110105;28;20713;-78
2023/10/20 00:19:47;;;;;;;5.80;5.30;;;13.20;99.90;;;;;;5114055;28;20188;-78
2023/10/20 00:22:15;;;;;;;5.53;5.03;;;13.20;99.90;;;;;;5113977;28;20260;-80
2023/10/20 00:24:41;;;;;;;5.93;4.60;;;13.20;99.90;;;;;;5123015;28;20201;-78
2023/10/20 00:27:08;;;;;;;5.30;4.80;;;13.20;99.90;;;;;;5115030;28;20233;-79
2023/10/20 00:29:34;;;;;;;4.87;4.43;;;13.20;99.90;;;;;;5114603;28;20299;-80
2023/10/20 00:32:00;;;;;;;4.80;4.43;;;13.20;99.90;;;;;;5115021;28;20172;-78
2023/10/20 00:34:26;;;;;;;4.50;4.10;;;13.20;99.90;;;;;;5114626;28;20176;-76
2023/10/20 00:36:52;;;;;;;7.43;4.80;;;13.20;99.90;;;;;;5114576;28;20170;-77
2023/10/20 00:39:18;;;;;;;4.23;3.93;;;13.10;99.90;;;;;;5113788;28;20257;-79
2023/10/20 00:41:44;;;;;;;6.43;3.87;;;13.20;99.90;;;;;;5118996;28;20181;-78
2023/10/20 00:44:09;;;;;;;4.30;4.00;;;13.20;99.90;;;;;;5115047;28;20234;-80
2023/10/20 00:46:35;;;;;;;4.43;4.03;;;13.10;99.90;;;;;;5098273;28;20228;-79
2023/10/20 00:49:02;;;;;;;4.30;4.00;;;13.10;99.90;;;;;;5093958;28;20206;-78
2023/10/20 00:51:30;;;;;;;3.77;3.57;;;13.10;99.90;;;;;;5077832;28;20186;-79
2023/10/20 00:53:59;;;;;;;3.77;3.50;;;13.10;99.90;;;;;;5097805;28;20167;-78
2023/10/20 00:56:27;;;;;;;4.13;3.70;;;13.00;99.90;;;;;;5097369;28;20224;-79
2023/10/20 00:58:53;;;;;;;4.43;4.03;;;13.00;99.90;;;;;;5097147;28;20171;-78
2023/10/20 01:01:18;;;;;;;3.90;3.57;;;13.10;99.90;;;;;;5097487;28;20230;-77
2023/10/20 01:03:44;;;;;;;4.30;3.90;;;13.00;99.90;;;;;;5079125;28;20182;-77
2023/10/20 01:06:10;;;;;;;3.93;3.63;;;13.00;99.90;;;;;;5079495;28;20208;-77
2023/10/20 01:08:36;;;;;;;3.93;3.67;;;13.10;99.90;;;;;;5097858;28;20206;-78
2023/10/20 01:11:02;;;;;;;4.70;4.30;;;13.10;99.90;;;;;;5097401;28;20177;-77
2023/10/20 01:13:28;;;;;;;6.13;4.73;;;13.20;99.90;;;;;;5097271;28;20217;-78
2023/10/20 01:15:54;;;;;;;7.17;5.03;;;13.20;99.90;;;;;;5097259;28;20185;-79
2023/10/20 01:18:19;;;;;;;5.83;3.77;;;13.20;99.90;;;;;;5097576;28;20257;-77
2023/10/20 01:20:47;;;;;;;4.30;3.90;;;13.30;99.90;;;;;;5097405;28;20540;-80
2023/10/20 01:23:13;;;;;;;3.60;3.40;;;13.20;99.90;;;;;;5096769;28;20171;-78
2023/10/20 01:25:39;;;;;;;5.03;3.97;;;13.20;99.90;;;;;;5078860;28;20226;-78
2023/10/20 01:28:05;;;;;;;3.83;3.53;;;13.20;99.90;;;;;;5097096;28;20224;-80
2023/10/20 01:30:31;;;;;;;4.10;3.80;;;13.20;99.90;;;;;;5097235;28;20213;-77
2023/10/20 01:32:56;;;;;;;4.53;4.00;;;13.10;99.90;;;;;;5098239;28;20163;-76
2023/10/20 01:35:22;;;;;;;4.57;4.17;;;13.10;99.90;;;;;;5103701;28;20182;-78
2023/10/20 01:37:48;;;;;;;4.30;4.00;;;13.10;99.90;;;;;;5100809;28;20174;-77
2023/10/20 01:40:14;;;;;;;5.13;4.63;;;13.10;99.90;;;;;;5108696;28;20170;-78
2023/10/20 01:42:40;;;;;;;4.67;4.33;;;13.10;99.90;;;;;;5107239;28;20662;-78
2023/10/20 01:45:06;;;;;;;5.20;4.17;;;13.20;99.90;;;;;;5098242;28;20270;-78
2023/10/20 01:47:34;;;;;;;4.50;4.20;;;13.20;99.90;;;;;;5108410;28;20179;-78
2023/10/20 01:50:01;;;;;;;4.87;4.43;;;13.10;99.90;;;;;;5116145;28;20281;-78
2023/10/20 01:52:26;;;;;;;4.53;4.00;;;13.10;99.90;;;;;;5088699;28;20174;-80
2023/10/20 01:54:53;;;;;;;4.40;3.97;;;13.20;99.90;;;;;;5098789;28;20216;-79
2023/10/20 01:57:19;;;;;;;4.47;4.07;;;13.20;99.90;;;;;;5098330;28;20220;-78
2023/10/20 01:59:45;;;;;;;4.30;3.90;;;13.20;99.90;;;;;;5087168;28;20247;-79
2023/10/20 02:02:11;;;;;;;4.17;3.87;;;13.20;99.90;;;;;;5097119;28;20202;-79
2023/10/20 02:04:37;;;;;;;4.67;4.07;;;13.20;99.90;;;;;;5097915;28;20170;-79
2023/10/20 02:07:03;;;;;;;4.47;4.03;;;13.10;99.90;;;;;;5096280;28;20198;-80
2023/10/20 02:09:28;;;;;;;4.70;4.30;;;13.20;99.90;;;;;;5096399;28;20289;-79
2023/10/20 02:11:58;;;;;;;4.90;4.20;;;13.20;99.90;;;;;;5096182;28;20175;-80
2023/10/20 02:14:24;;;;;;;4.73;4.33;;;13.20;99.90;;;;;;5096505;28;20201;-77
2023/10/20 02:16:53;;;;;;;4.43;4.03;;;13.20;99.90;;;;;;5096349;28;20177;-80
2023/10/20 02:19:19;;;;;;;5.37;4.20;;;13.20;99.90;;;;;;5096493;28;20194;-79
2023/10/20 02:21:47;;;;;;;4.27;3.93;;;13.00;99.90;;;;;;5096091;28;20179;-76
2023/10/20 02:24:14;;;;;;;4.50;4.20;;;13.20;99.90;;;;;;5097201;28;20195;-79
2023/10/20 02:26:40;;;;;;;5.03;4.57;;;13.20;99.90;;;;;;5096634;28;20286;-78
2023/10/20 02:29:06;;;;;;;4.40;4.10;;;13.30;99.90;;;;;;5097356;28;20224;-79
2023/10/20 02:31:32;;;;;;;3.93;3.63;;;13.30;99.90;;;;;;5096553;28;20705;-77
2023/10/20 02:33:57;;;;;;;4.80;4.10;;;13.30;99.90;;;;;;5097797;28;20219;-75
2023/10/20 02:36:24;;;;;;;5.07;4.40;;;13.20;99.90;;;;;;5096225;28;20167;-79
2023/10/20 02:38:53;;;;;;;6.03;4.30;;;13.30;99.90;;;;;;5096047;28;20216;-78
2023/10/20 02:41:20;;;;;;;4.10;3.80;;;13.30;99.90;;;;;;5095785;28;20219;-79
2023/10/20 02:43:45;;;;;;;4.13;3.83;;;13.20;99.90;;;;;;5095772;28;20171;-80
2023/10/20 02:46:12;;;;;;;5.77;4.43;;;13.20;99.90;;;;;;5096447;28;20175;-77
2023/10/20 02:48:38;;;;;;;4.60;4.20;;;13.10;99.90;;;;;;5095427;28;20255;-79
2023/10/20 02:51:12;;;;;;;4.30;3.80;;;13.20;99.90;;;;;;5076972;28;20174;-79
2023/10/20 02:53:40;;;;;;;4.70;4.30;;;13.20;99.90;;;;;;5094556;28;20178;-79
2023/10/20 02:56:14;;;;;;;4.00;3.67;;;13.20;99.90;;;;;;5094823;28;20182;-80
2023/10/20 02:58:43;;;;;;;3.73;3.53;;;13.30;99.90;;;;;;5094489;28;20187;-80
2023/10/20 03:01:09;;;;;;;4.43;4.03;;;13.20;99.90;;;;;;5094342;28;20190;-79
2023/10/20 03:03:36;;;;;;;3.87;3.57;;;13.20;99.90;;;;;;5094325;28;20175;-79
2023/10/20 03:06:03;;;;;;;4.77;4.10;;;13.20;99.90;;;;;;5094173;28;20182;-79
2023/10/20 03:08:30;;;;;;;4.57;4.13;;;13.20;99.90;;;;;;5094032;28;20206;-79
2023/10/20 03:10:59;;;;;;;4.10;3.80;;;13.20;99.90;;;;;;5094369;28;20194;-78
2023/10/20 03:13:26;;;;;;;4.27;3.97;;;13.20;99.90;;;;;;5094012;28;20182;-76
2023/10/20 03:15:52;;;;;;;4.20;3.90;;;13.10;99.90;;;;;;5094759;28;20167;-78
2023/10/20 03:18:19;;;;;;;4.73;4.17;;;13.10;99.90;;;;;;5094586;28;20171;-75
2023/10/20 03:20:46;;;;;;;4.43;3.97;;;13.00;99.90;;;;;;5097597;28;20166;-76
2023/10/20 03:23:15;;;;;;;4.37;4.00;;;13.00;99.90;;;;;;5112215;28;20174;-75
2023/10/20 03:25:42;;;;;;;4.10;3.80;;;13.10;99.90;;;;;;5087469;28;20226;-79
2023/10/20 03:28:08;;;;;;;4.30;3.90;;;13.00;99.90;;;;;;5095642;28;20237;-78
2023/10/20 03:30:41;;;;;;;3.93;3.70;;;13.10;99.90;;;;;;5104399;28;20194;-78
2023/10/20 03:33:12;;;;;;;4.10;3.80;;;13.10;99.90;;;;;;5084945;28;20171;-77
2023/10/20 03:35:38;;;;;;;5.17;4.70;;;13.00;99.90;;;;;;5105894;28;20196;-77
2023/10/20 03:38:04;;;;;;;4.90;4.30;;;13.00;99.90;;;;;;5092584;28;20194;-75
2023/10/20 03:40:37;;;;;;;4.87;4.40;;;13.00;99.90;;;;;;5086917;28;20190;-80
2023/10/20 03:43:08;;;;;;;4.87;4.30;;;13.00;99.90;;;;;;5096184;28;20182;-79
2023/10/20 03:45:41;;;;;;;5.00;4.50;;;13.00;99.90;;;;;;5096370;28;20605;-77
2023/10/20 03:48:10;;;;;;;5.03;4.60;;;13.10;99.90;;;;;;5094372;28;20206;-77
2023/10/20 03:50:38;;;;;;;4.70;4.30;;;13.10;99.90;;;;;;5076271;28;20171;-77
2023/10/20 03:53:04;;;;;;;5.00;4.60;;;13.20;99.90;;;;;;5094242;28;20174;-76
2023/10/20 03:55:32;;;;;;;5.53;4.13;;;13.10;99.90;;;;;;5094308;28;20172;-78
2023/10/20 03:57:57;;;;;;;5.23;4.77;;;13.10;99.90;;;;;;5100278;28;20180;-79
2023/10/20 04:00:29;;;;;;;4.40;4.03;;;13.10;99.90;;;;;;5091528;28;20215;-76
2023/10/20 04:02:56;;;;;;;4.70;4.40;;;13.10;99.90;;;;;;5094311;28;20189;-75
2023/10/20 04:05:23;;;;;;;5.07;4.50;;;13.20;99.90;;;;;;5094056;28;20220;-77
2023/10/20 04:07:50;;;;;;;5.13;4.63;;;13.10;99.90;;;;;;5074993;28;20268;-78
2023/10/20 04:10:18;;;;;;;4.60;4.17;;;13.20;99.90;;;;;;5093362;28;20709;-76
2023/10/20 04:12:44;;;;;;;6.73;4.63;;;13.20;99.90;;;;;;5094384;28;20186;-76
2023/10/20 04:15:14;;;;;;;7.90;4.60;;;13.20;99.90;;;;;;5106102;28;20179;-77
2023/10/20 04:17:43;;;;;;;6.77;4.73;;;13.20;99.90;;;;;;5097881;28;20269;-78
2023/10/20 04:20:15;;;;;;;10.00;4.13;;;13.20;99.90;;;;;;5097225;28;20170;-78
2023/10/20 04:22:43;;;;;;;6.83;4.73;;;13.30;99.90;;;;;;5095062;28;20173;-77
2023/10/20 04:25:12;;;;;;;9.27;4.47;;;13.30;99.90;;;;;;5092627;28;20218;-80
2023/10/20 04:27:57;;;;;;;4.53;4.17;;;13.30;99.90;;;;;;5093236;28;20213;-76
2023/10/20 05:08:16;;;;;;;5.20;4.50;;;13.30;99.90;;;;;;5093325;28;20239;-77
2023/10/20 05:10:47;;;;;;;3.70;3.40;;;13.30;99.90;;;;;;5093878;28;20171;-80
2023/10/20 05:13:13;;;;;;;4.00;3.70;;;13.40;99.90;;;;;;5093615;28;20165;-79
2023/10/20 05:15:39;;;;;;;5.07;4.67;;;13.40;99.90;;;;;;5094537;28;20170;-77
2023/10/20 05:18:05;;;;;;;6.87;4.53;;;13.40;99.90;;;;;;5078444;28;20196;-77
2023/10/20 05:20:34;;;;;;;4.70;4.30;;;13.40;99.90;;;;;;5104108;28;20175;-79
2023/10/20 05:23:00;;;;;;;8.93;5.00;;;13.40;99.90;;;;;;5100919;28;20190;-78
2023/10/20 05:25:26;;;;;;;8.17;4.60;;;13.30;99.90;;;;;;5104357;28;20227;-80
2023/10/20 05:27:52;;;;;;;4.73;4.40;;;13.40;99.90;;;;;;5087070;28;20677;-80
2023/10/20 05:30:17;;;;;;;6.37;4.50;;;13.40;99.90;;;;;;5076734;28;20183;-79
2023/10/20 05:32:43;;;;;;;4.13;3.83;;;13.40;99.90;;;;;;5074531;28;20267;-79
2023/10/20 05:35:09;;;;;;;5.00;4.50;;;13.50;99.90;;;;;;5038166;28;20187;-79
2023/10/20 05:37:35;;;;;;;5.23;4.50;;;13.50;99.90;;;;;;5074632;28;20189;-79
2023/10/20 05:40:02;;;;;;;8.40;4.97;;;13.50;99.90;;;;;;5075904;28;20224;-78
2023/10/20 05:42:28;;;;;;;5.07;4.57;;;13.60;99.90;;;;;;5076861;28;20198;-79
2023/10/20 05:47:38;;;;;;;5.07;4.67;;;13.50;99.90;;;;;;5076025;28;20232;-78
2023/10/20 05:50:05;;;;;;;7.33;4.60;;;13.40;99.90;;;;;;5075650;28;20176;-80
2023/10/20 05:52:30;;;;;;;6.27;4.60;;;13.40;99.90;;;;;;5075767;28;20641;-77
2023/10/20 05:54:57;;;;;;;6.37;4.43;;;13.40;99.90;;;;;;5078189;28;20206;-78
2023/10/20 05:57:23;;;;;;;5.30;4.77;;;13.50;99.90;;;;;;5059855;28;20199;-76
2023/10/20 05:59:49;;;;;;;9.03;5.60;;;13.50;99.90;;;;;;5078682;28;20179;-80
2023/10/20 06:02:16;;;;;;;4.87;4.40;;;13.50;99.90;;;;;;5076243;28;20181;-79
2023/10/20 06:04:41;;;;;;;7.33;4.93;;;13.50;99.90;;;;;;5057386;28;20190;-78
2023/10/20 06:07:07;;;;;;;6.27;4.30;;;13.60;99.90;;;;;;5076364;28;20179;-76
2023/10/20 06:09:33;;;;;;;4.50;4.10;;;13.60;99.90;;;;;;5075989;28;20207;-76
2023/10/20 06:11:59;;;;;;;5.57;5.07;;;13.70;99.90;;;;;;5075918;28;20175;-76
2023/10/20 06:14:26;;;;;;;5.60;5.10;;;13.60;99.90;;;;;;5081154;28;20175;-76
2023/10/20 06:16:52;;;;;;;5.03;4.60;;;13.70;99.90;;;;;;5079427;28;20231;-76
2023/10/20 06:19:18;;;;;;;6.27;5.40;;;13.70;99.90;;;;;;5061105;28;20175;-79
2023/10/20 06:21:45;;;;;;;5.87;5.17;;;13.70;99.90;;;;;;5077102;28;20187;-80
2023/10/20 06:24:11;;;;;;;10.27;6.27;;;13.80;99.90;;;;;;5075167;28;20161;-80
2023/10/20 06:26:37;;;;;;;9.57;6.37;;;13.80;99.90;;;;;;5072685;28;20792;-79
2023/10/20 06:29:20;;;;;;;6.93;5.40;;;13.80;99.90;;;;;;5095807;28;20213;-78
2023/10/20 06:34:34;;;;;;;7.03;4.43;;;13.80;99.90;;;;;;5095984;28;20165;-76
2023/10/20 06:37:07;;;;;;;8.23;5.10;;;13.80;99.90;;;;;;5095583;28;20534;-79
2023/10/20 06:39:35;;;;;;;7.67;5.37;;;13.80;99.90;;;;;;5095778;28;20250;-76
2023/10/20 06:42:00;;;;;;;7.97;5.43;;;13.80;99.90;;;;;;5095113;28;20178;-77
2023/10/20 06:44:26;;;;;;;10.30;5.73;;;13.80;99.90;;;;;;5077748;28;20213;-77
2023/10/20 06:46:52;;;;;;;11.47;5.77;;;13.90;99.90;;;;;;5096298;28;20224;-77
2023/10/20 06:49:18;;;;;;;10.23;5.47;;;13.90;99.90;;;;;;5094859;28;20300;-77
2023/10/20 06:51:48;;;;;;;6.23;5.53;;;13.90;99.90;;;;;;5095708;28;20665;-77
2023/10/20 06:54:14;;;;;;;7.20;5.10;;;13.90;99.90;;;;;;5095048;28;20215;-77
2023/10/20 06:56:40;;;;;;;5.13;4.63;;;13.90;99.90;;;;;;5095311;28;20262;-77
2023/10/20 06:59:06;;;;;;;11.10;5.17;;;13.90;99.90;;;;;;5094901;28;20661;-77
2023/10/20 07:01:32;;;;;;;7.93;5.57;;;14.00;99.90;;;;;;5095454;28;20178;-76
2023/10/20 07:03:59;;;;;;;10.90;5.40;;;14.00;99.90;;;;;;5095353;28;20171;-77
2023/10/20 07:06:24;;;;;;;6.27;5.37;;;14.00;99.90;;;;;;5095497;28;20173;-76
2023/10/20 07:08:50;;;;;;;8.63;6.23;;;14.00;99.90;;;;;;5096750;28;20210;-78
2023/10/20 07:11:16;;;;;;;5.90;5.30;;;14.00;99.90;;;;;;5086987;28;20164;-77
2023/10/20 07:13:44;;;;;;;10.17;6.07;;;14.00;99.90;;;;;;5096991;28;20178;-79
2023/10/20 07:16:12;;;;;;;9.93;5.23;;;14.00;99.90;;;;;;5107845;28;20243;-78
2023/10/20 07:18:38;;;;;;;8.73;5.50;;;14.10;99.90;;;;;;5103887;28;20186;-78
2023/10/20 07:21:04;;;;;;;9.27;5.20;;;14.10;99.90;;;;;;5080314;28;20210;-77
2023/10/20 07:23:30;;;;;;;6.70;4.93;;;14.20;99.90;;;;;;5078228;28;20178;-77
2023/10/20 07:25:55;;;;;;;10.83;4.90;;;14.20;99.90;;;;;;5096159;28;20222;-77
2023/10/20 07:28:21;;;;;;;8.33;4.90;;;14.30;99.90;;;;;;5096155;28;20190;-76
2023/10/20 07:30:47;;;;;;;8.93;5.53;;;14.40;99.90;;;;;;5101048;28;20174;-77
2023/10/20 07:33:13;;;;;;;13.10;6.57;;;14.40;99.90;;;;;;5107539;28;20178;-78
2023/10/20 07:35:39;;;;;;;13.63;6.23;;;14.40;99.90;;;;;;5099617;28;20194;-78
2023/10/20 07:38:05;;;;;;;13.77;5.90;;;14.50;99.90;;;;;;5076817;28;20187;-76
2023/10/20 07:40:34;;;;;;;9.13;5.43;;;14.50;99.90;;;;;;5096119;28;20175;-77
2023/10/20 07:43:06;;;;;;;11.83;6.23;;;14.60;99.90;;;;;;5077438;28;20206;-76
2023/10/20 07:45:38;;;;;;;14.00;6.20;;;14.70;99.90;;;;;;5095413;28;20167;-79
2023/10/20 07:48:05;;;;;;;11.73;6.03;;;14.70;99.90;;;;;;5076891;28;20660;-77
2023/10/20 07:50:31;;;;;;;11.80;5.90;;;14.80;99.90;;;;;;5095061;28;20251;-77
2023/10/20 07:52:57;;;;;;;11.73;5.63;;;14.90;99.90;;;;;;5076662;28;20166;-77
2023/10/20 07:55:23;;;;;;;9.47;5.13;;;14.90;99.90;;;;;;5094625;28;20180;-78
2023/10/20 07:57:48;;;;;;;13.77;6.23;;;14.90;99.90;;;;;;5095765;28;20224;-78
2023/10/20 08:00:14;;;;;;;8.17;5.43;;;14.90;99.90;;;;;;5094450;28;20232;-75
2023/10/20 08:02:41;;;;;;;9.50;6.00;;;14.90;99.90;;;;;;5094630;28;20206;-75
2023/10/20 08:05:08;;;;;;;10.20;7.37;;;14.90;99.90;;;;;;5094219;28;20174;-78
2023/10/20 08:07:34;;;;;;;10.47;5.47;;;14.90;99.90;;;;;;5093963;28;20221;-76
2023/10/20 08:10:00;;;;;;;15.53;6.03;;;14.90;99.90;;;;;;5093871;28;20213;-78
2023/10/20 08:12:25;;;;;;;8.03;5.50;;;15.10;99.90;;;;;;5075312;28;20178;-76
2023/10/20 08:14:51;;;;;;;7.80;5.60;;;15.10;99.90;;;;;;5094230;28;20187;-76
2023/10/20 08:17:17;;;;;;;7.80;5.17;;;15.20;99.90;;;;;;5093594;28;20178;-75
2023/10/20 08:19:46;;;;;;;7.53;5.83;;;15.20;99.90;;;;;;5094487;28;20173;-76
2023/10/20 08:22:11;;;;;;;9.67;5.27;;;15.40;99.90;;;;;;5093895;28;20495;-77
2023/10/20 08:24:37;;;;;;;6.47;4.83;;;15.40;99.90;;;;;;5093844;28;20223;-76
2023/10/20 08:27:03;;;;;;;9.60;5.40;;;15.50;99.90;;;;;;5074645;28;20322;-77
2023/10/20 08:29:29;;;;;;;12.97;5.87;;;15.60;99.90;;;;;;5073247;28;20213;-77
2023/10/20 08:31:54;;;;;;;12.43;5.50;;;15.70;99.90;;;;;;5074175;28;20173;-76
2023/10/20 08:34:20;;;;;;;12.13;4.00;;;15.90;99.90;;;;;;5074549;28;20243;-78
2023/10/20 08:36:46;;;;;;;10.40;4.00;;;16.20;99.90;;;;;;5078179;28;20199;-77
2023/10/20 08:39:19;;;;;;;8.03;3.60;;;16.60;99.90;;;;;;5057148;28;20205;-76
2023/10/20 08:41:45;;;;;;;7.30;3.50;;;16.80;99.90;;;;;;5055038;28;20181;-76
2023/10/20 08:44:14;;;;;;;4.67;3.23;;;17.10;99.90;;;;;;5073497;28;20204;-76
2023/10/20 08:46:41;;;;;;;14.90;5.73;;;17.30;99.90;;;;;;5073303;28;20185;-76
2023/10/20 08:49:08;;;;;;;14.57;6.33;;;17.30;99.90;;;;;;5072836;28;20540;-75
2023/10/20 08:51:37;;;;;;;9.90;4.63;;;17.50;99.90;;;;;;5073016;28;20171;-76
2023/10/20 08:54:10;;;;;;;20.67;5.30;;;17.50;99.90;;;;;;5073042;28;20262;-78
2023/10/20 08:56:36;;;;;;;13.87;4.40;;;17.60;99.90;;;;;;5055283;28;20175;-77
2023/10/20 08:59:03;;;;;;;10.10;4.27;;;17.80;99.90;;;;;;5074011;28;20249;-75
2023/10/20 09:01:28;;;;;;;14.87;4.97;;;17.90;99.90;;;;;;5075599;28;20159;-75
2023/10/20 09:03:59;;;;;;;10.70;4.40;;;18.00;99.90;;;;;;5094762;28;20178;-76
2023/10/20 09:06:26;;;;;;;16.43;4.30;;;18.10;99.90;;;;;;5063456;28;20179;-75
2023/10/20 09:08:52;;;;;;;9.10;3.80;;;18.10;99.90;;;;;;5081738;28;20287;-76
2023/10/20 09:11:25;;;;;;;15.60;4.70;;;18.20;99.90;;;;;;5076956;28;20170;-79
2023/10/20 09:13:50;;;;;;;17.47;7.23;;;18.20;99.90;;;;;;5069694;28;20654;-76
2023/10/20 09:16:16;;;;;;;10.93;5.13;;;18.20;99.90;;;;;;5083918;28;20167;-76
2023/10/20 09:18:47;;;;;;;9.80;6.13;;;18.30;99.90;;;;;;5080693;28;20204;-77
2023/10/20 09:21:14;;;;;;;20.80;5.17;;;18.40;99.90;;;;;;5071108;28;20686;-77
2023/10/20 09:23:52;;;;;;;13.67;4.03;;;18.40;99.90;;;;;;5083656;28;20300;-75
2023/10/20 09:26:18;;;;;;;6.00;2.90;;;18.40;99.90;;;;;;5092982;28;20249;-77
2023/10/20 09:28:51;;;;;;;13.20;4.50;;;18.40;99.90;;;;;;5097817;28;20210;-77
2023/10/20 09:31:18;;;;;;;26.37;5.40;;;18.50;99.90;;;;;;5099957;28;20179;-75
2023/10/20 09:33:45;;;;;;;12.07;4.13;;;18.60;99.90;;;;;;5096857;28;20245;-76
2023/10/20 09:36:11;;;;;;;8.83;3.60;;;18.70;99.90;;;;;;5097872;28;20183;-77
2023/10/20 09:38:38;;;;;;;8.40;3.63;;;18.80;99.90;;;;;;5098141;28;20171;-77
2023/10/20 09:41:12;;;;;;;15.33;5.60;;;18.90;99.90;;;;;;5097543;28;20630;-77
2023/10/20 09:44:02;;;;;;;8.77;4.50;;;19.00;99.90;;;;;;5097595;28;20170;-78
2023/10/20 09:46:48;;;;;;;4.83;3.43;;;19.00;99.90;;;;;;5098573;28;20626;-77
2023/10/20 09:49:18;;;;;;;7.67;3.00;;;19.10;99.90;;;;;;5098401;28;20201;-76
2023/10/20 09:51:46;;;;;;;5.03;3.07;;;19.20;99.90;;;;;;5097048;28;20190;-79
2023/10/20 09:54:33;;;;;;;4.97;3.03;;;19.20;99.90;;;;;;5096700;28;20183;-75
2023/10/20 09:57:00;;;;;;;5.40;2.97;;;19.40;99.90;;;;;;5102562;28;20181;-76
2023/10/20 09:59:30;;;;;;;6.10;3.13;;;19.60;99.90;;;;;;5097809;28;20574;-78
2023/10/20 10:01:57;;;;;;;6.87;3.00;;;19.70;99.90;;;;;;5080902;28;20171;-79
2023/10/20 10:04:29;;;;;;;5.10;2.57;;;19.80;99.90;;;;;;5079501;28;20582;-76
2023/10/20 10:06:57;;;;;;;8.93;3.10;;;20.00;99.90;;;;;;5096517;28;20204;-79
2023/10/20 10:09:49;;;;;;;6.87;2.97;;;20.20;99.90;;;;;;5096786;28;20293;-76
2023/10/20 10:12:19;;;;;;;8.90;3.53;;;20.40;99.90;;;;;;5078499;28;20205;-77
2023/10/20 10:15:12;;;;;;;3.93;2.97;;;20.40;99.90;;;;;;5096432;28;20158;-77
2023/10/20 10:17:49;;;;;;;4.50;2.57;;;20.40;99.90;;;;;;5096578;28;20223;-77
2023/10/20 10:20:24;;;;;;;6.83;3.10;;;20.40;99.90;;;;;;5096529;28;20174;-77
2023/10/20 10:23:00;;;;;;;7.73;2.90;;;20.40;99.90;;;;;;5095062;28;20177;-79
2023/10/20 10:25:46;;;;;;;7.57;3.00;;;20.40;99.90;;;;;;5096351;28;20218;-77
2023/10/20 10:28:20;;;;;;;7.00;2.80;;;20.40;99.90;;;;;;5096585;28;20192;-78
2023/10/20 10:30:53;;;;;;;6.13;2.80;;;20.40;99.90;;;;;;5096586;28;20241;-79
2023/10/20 10:33:21;;;;;;;4.07;2.57;;;20.40;99.90;;;;;;5095975;28;20217;-75
2023/10/20 10:35:47;;;;;;;6.73;3.10;;;20.40;99.90;;;;;;5095996;28;20182;-77
2023/10/20 10:38:23;;;;;;;115.87;79.83;;;20.40;99.90;;;;;;5096088;28;20175;-75
2023/10/20 10:40:51;;;;;;;6.00;4.30;;;20.40;99.90;;;;;;5096476;28;20223;-78
2023/10/20 10:43:19;;;;;;;7.57;3.87;;;20.60;99.90;;;;;;5097022;28;20243;-76
2023/10/20 10:45:45;;;;;;;8.47;3.03;;;20.60;99.90;;;;;;5096259;28;20178;-79
2023/10/20 10:48:13;;;;;;;10.37;3.80;;;20.50;99.90;;;;;;5096531;28;20237;-76
2023/10/20 10:50:46;;;;;;;5.87;2.97;;;19.70;99.90;;;;;;5096798;28;20178;-79
2023/10/20 10:53:13;;;;;;;5.13;2.90;;;20.60;99.90;;;;;;5099132;28;20167;-78
2023/10/20 10:55:40;;;;;;;6.03;3.10;;;20.60;99.90;;;;;;5096293;28;20166;-77
2023/10/20 10:58:13;;;;;;;7.27;3.23;;;20.70;99.90;;;;;;5096114;28;20170;-77
2023/10/20 11:00:41;;;;;;;7.30;3.10;;;20.70;99.90;;;;;;5095928;28;20622;-79
2023/10/20 11:03:07;;;;;;;9.60;3.77;;;20.90;99.90;;;;;;5095046;28;20626;-77
2023/10/20 11:05:33;;;;;;;6.90;3.63;;;21.00;99.90;;;;;;5096982;28;20166;-78
2023/10/20 11:08:01;;;;;;;7.23;3.20;;;21.00;99.90;;;;;;5096886;28;20178;-78
2023/10/20 11:10:29;;;;;;;6.30;3.10;;;21.00;99.90;;;;;;5099497;28;20238;-76
2023/10/20 11:12:58;;;;;;;7.27;3.30;;;21.00;99.90;;;;;;5101002;28;20174;-75
2023/10/20 11:15:30;;;;;;;6.67;2.87;;;21.10;99.90;;;;;;5095975;28;20173;-77
2023/10/20 11:18:00;;;;;;;9.83;3.63;;;21.30;99.90;;;;;;5094658;28;20182;-76
2023/10/20 11:20:27;;;;;;;7.47;2.97;;;21.30;99.90;;;;;;5094680;28;20170;-75
2023/10/20 11:22:54;;;;;;;5.43;3.17;;;21.30;99.90;;;;;;5100306;28;20162;-77
2023/10/20 11:25:21;;;;;;;9.83;3.23;;;21.30;99.90;;;;;;5078177;28;20272;-79
2023/10/20 11:27:54;;;;;;;11.43;4.53;;;21.40;99.90;;;;;;5095176;28;20722;-79
2023/10/20 11:30:28;;;;;;;5.27;2.90;;;21.60;99.90;;;;;;5076663;28;20189;-79
2023/10/20 11:32:54;;;;;;;5.27;3.10;;;21.60;99.90;;;;;;5093702;28;20535;-77
2023/10/20 11:35:30;;;;;;;5.83;2.63;;;21.60;99.90;;;;;;5094231;28;20174;-78
2023/10/20 11:37:59;;;;;;;9.93;3.27;;;21.60;99.90;;;;;;5094923;28;20185;-76
2023/10/20 11:40:26;;;;;;;7.75;3.00;;;21.70;99.90;;;;;;5095179;28;20174;-77
2023/10/20 11:42:52;;;;;;;9.27;3.10;;;21.80;99.90;;;;;;5094162;28;20621;-78
2023/10/20 11:45:18;;;;;;;7.80;3.10;;;22.00;99.90;;;;;;5093725;28;20182;-80
2023/10/20 11:47:45;;;;;;;6.80;2.80;;;22.20;99.90;;;;;;5094123;28;20577;-74
2023/10/20 11:50:11;;;;;;;8.97;3.23;;;22.20;99.90;;;;;;5093610;28;20240;-77
2023/10/20 11:52:40;;;;;;;15.18;10.65;;;22.40;99.90;;;;;;5094213;28;20179;-76
2023/10/20 11:55:10;;;;;;;6.00;3.33;;;22.60;99.90;;;;;;5093142;28;20627;-78
2023/10/20 11:57:37;;;;;;;5.75;3.17;;;22.70;99.90;;;;;;5093639;28;20588;-77
2023/10/20 12:00:07;;;;;;;11.10;3.55;;;22.80;99.90;;;;;;5093955;28;20210;-77
2023/10/20 12:02:38;;;;;;;8.15;3.40;;;22.80;99.90;;;;;;5076749;28;20637;-77
2023/10/20 12:05:05;;;;;;;7.88;3.92;;;22.80;99.90;;;;;;5076514;28;20182;-76
2023/10/20 12:07:32;;;;;;;8.88;3.40;;;22.90;99.90;;;;;;5093647;28;20215;-78
2023/10/20 12:09:57;;;;;;;6.67;3.80;;;22.90;99.90;;;;;;5093105;28;20225;-75
2023/10/20 12:12:23;;;;;;;8.80;3.20;;;22.70;99.90;;;;;;5093966;28;20626;-78
2023/10/20 12:14:49;;;;;;;8.48;3.60;;;22.50;99.90;;;;;;5094287;28;20659;-76
2023/10/20 12:17:15;;;;;;;13.05;3.92;;;22.50;99.90;;;;;;5085150;28;20212;-77
2023/10/20 12:19:41;;;;;;;5.63;3.30;;;22.30;99.90;;;;;;5095039;28;20224;-78
2023/10/20 12:22:08;;;;;;;15.00;3.72;;;22.20;99.90;;;;;;5094158;28;20617;-78
2023/10/20 12:24:35;;;;;;;8.90;3.60;;;22.10;99.90;;;;;;5094973;28;20185;-77
2023/10/20 12:27:01;;;;;;;10.07;3.50;;;22.00;99.90;;;;;;5076202;28;20295;-77
2023/10/20 12:29:28;;;;;;;9.85;3.72;;;22.00;99.90;;;;;;5075159;28;20211;-77
2023/10/20 12:31:54;;;;;;;9.93;3.70;;;22.10;99.90;;;;;;5075338;28;20186;-77
2023/10/20 12:34:20;;;;;;;6.55;3.60;;;22.20;99.90;;;;;;5056703;28;20183;-78
2023/10/20 12:36:48;;;;;;;10.70;4.17;;;22.20;99.90;;;;;;5079368;28;20198;-77
2023/10/20 12:39:23;;;;;;;6.88;3.78;;;22.20;99.90;;;;;;5057795;28;20205;-80
2023/10/20 12:41:49;;;;;;;8.20;3.97;;;22.30;99.90;;;;;;5074720;28;20184;-78
2023/10/20 12:44:17;;;;;;;8.18;4.20;;;22.20;99.90;;;;;;5074195;28;20202;-76
2023/10/20 12:46:44;;;;;;;8.52;3.70;;;22.10;99.90;;;;;;5073388;28;20174;-77
2023/10/20 12:49:10;;;;;;;5.65;3.40;;;22.00;99.90;;;;;;5074621;28;20777;-76
2023/10/20 12:51:35;;;;;;;8.93;3.60;;;21.80;99.90;;;;;;5073839;28;20179;-78
2023/10/20 12:54:02;;;;;;;8.73;3.78;;;21.70;99.90;;;;;;5073815;28;20179;-76
2023/10/20 12:56:30;;;;;;;8.73;3.67;;;21.70;99.90;;;;;;5072701;28;20175;-76
2023/10/20 12:58:56;;;;;;;10.10;3.70;;;21.80;99.90;;;;;;5072480;28;20238;-81
2023/10/20 13:01:22;;;;;;;6.47;4.00;;;21.70;99.90;;;;;;5072896;28;20171;-80
2023/10/20 13:03:51;;;;;;;8.90;4.17;;;21.60;99.90;;;;;;5073329;28;20240;-78
2023/10/20 13:06:16;;;;;;;8.77;3.53;;;21.60;99.90;;;;;;5074764;28;20643;-76
2023/10/20 13:08:43;;;;;;;7.83;3.70;;;21.60;99.90;;;;;;5075677;28;20214;-76
2023/10/20 13:11:12;;;;;;;7.00;3.53;;;21.60;99.90;;;;;;5080024;28;20175;-74
2023/10/20 13:13:38;;;;;;;10.33;4.63;;;21.50;99.90;;;;;;5074259;28;20172;-76
2023/10/20 13:16:06;;;;;;;7.63;4.10;;;21.70;99.90;;;;;;5056077;28;20160;-78
2023/10/20 13:18:32;;;;;;;8.37;3.73;;;21.60;99.90;;;;;;5073881;28;20179;-79
2023/10/20 13:21:02;;;;;;;11.73;4.10;;;21.70;99.90;;;;;;5072942;28;20175;-77
2023/10/20 13:23:28;;;;;;;13.13;3.63;;;21.70;99.90;;;;;;5072733;28;20190;-77
2023/10/20 13:26:04;;;;;;;10.40;3.73;;;21.70;99.90;;;;;;5073022;28;20593;-75
2023/10/20 13:28:31;;;;;;;10.43;3.50;;;21.80;99.90;;;;;;5055383;28;20334;-78
2023/10/20 13:31:06;;;;;;;9.10;3.77;;;21.70;99.90;;;;;;5073128;28;20221;-77